Time;durP1;ratioP1;P1;durP2;ratioP2;P2;SDS_P1;SDS_P2;PMS_P1;PMS_P2;Temp;Humidity;BMP_temperature;BMP_pressure;BME280_temperature;BME280_humidity;BME280_pressure;Samples;Min_cycle;Max_cycle;Signal;HPM_P1;HPM_P2
2022/05/16 00:00:11;;;;;;;4.97;1.98;;;20.20;89.10;;;;;;5019865;28;20070;-62
2022/05/16 00:02:38;;;;;;;4.72;1.80;;;20.20;89.60;;;;;;5019861;28;20042;-63
2022/05/16 00:05:05;;;;;;;3.92;2.10;;;20.20;89.70;;;;;;5019810;28;20305;-63
2022/05/16 00:07:30;;;;;;;4.38;1.80;;;20.10;90.10;;;;;;5019002;28;20313;-62
2022/05/16 00:09:56;;;;;;;4.82;2.17;;;20.10;90.50;;;;;;5019723;28;20104;-62
2022/05/16 00:12:22;;;;;;;4.63;1.70;;;20.00;90.60;;;;;;5019602;28;20352;-63
2022/05/16 00:14:48;;;;;;;5.88;2.10;;;20.00;90.70;;;;;;5018813;28;20042;-63
2022/05/16 00:17:13;;;;;;;3.28;1.85;;;20.00;90.90;;;;;;5019530;28;20034;-64
2022/05/16 00:19:41;;;;;;;4.22;1.90;;;20.00;91.40;;;;;;5019527;28;20038;-66
2022/05/16 00:22:07;;;;;;;5.50;1.95;;;19.80;91.70;;;;;;5019665;28;20034;-64
2022/05/16 00:24:32;;;;;;;7.05;2.17;;;19.70;92.20;;;;;;5019614;28;20392;-63
2022/05/16 00:27:01;;;;;;;3.45;1.83;;;19.70;92.40;;;;;;5019255;28;20429;-65
2022/05/16 00:29:27;;;;;;;2.47;1.60;;;19.70;92.70;;;;;;5019310;28;20381;-63
2022/05/16 00:31:55;;;;;;;4.50;2.20;;;19.70;93.20;;;;;;5019229;28;20081;-62
2022/05/16 00:34:22;;;;;;;7.65;2.47;;;19.70;93.50;;;;;;5019185;28;20294;-63
2022/05/16 00:36:48;;;;;;;4.40;2.40;;;19.70;93.60;;;;;;5019163;28;20158;-63
2022/05/16 00:39:20;;;;;;;3.75;2.22;;;19.80;93.70;;;;;;5019083;28;20069;-63
2022/05/16 00:41:47;;;;;;;;;;;19.80;94.20;;;;;;5019451;28;20034;-62
2022/05/16 00:44:13;;;;;;;2.67;1.75;;;19.70;94.60;;;;;;5017116;28;19967;-62
2022/05/16 00:46:39;;;;;;;3.90;1.83;;;19.70;95.00;;;;;;5018949;28;20040;-62
2022/05/16 00:49:11;;;;;;;6.28;1.70;;;19.60;95.50;;;;;;5018971;28;20104;-62
2022/05/16 00:51:57;;;;;;;3.63;1.75;;;19.50;95.50;;;;;;5018971;28;20298;-62
2022/05/16 00:54:29;;;;;;;3.20;2.13;;;19.60;96.00;;;;;;5018795;28;20070;-62
2022/05/16 00:56:59;;;;;;;10.07;2.25;;;19.60;96.10;;;;;;5018758;28;20026;-62
2022/05/16 00:59:54;;;;;;;3.53;2.20;;;19.60;95.90;;;;;;5018814;28;20064;-61
2022/05/16 01:05:18;;;;;;;2.03;1.70;;;19.50;97.30;;;;;;4983735;28;20114;-62
2022/05/16 01:07:45;;;;;;;1.98;1.75;;;19.50;97.30;;;;;;5018620;28;20030;-62
2022/05/16 01:10:14;;;;;;;3.92;1.73;;;19.40;97.90;;;;;;5018596;28;20385;-62
2022/05/16 01:12:43;;;;;;;2.30;1.85;;;19.40;98.40;;;;;;5018467;28;20030;-62
2022/05/16 01:15:36;;;;;;;3.85;2.13;;;19.40;98.30;;;;;;5018407;28;20128;-61
2022/05/16 01:18:07;;;;;;;6.05;1.90;;;19.30;98.70;;;;;;5016280;28;20053;-62
2022/05/16 01:21:01;;;;;;;5.38;2.15;;;19.40;99.30;;;;;;5017667;28;20026;-62
2022/05/16 01:23:31;;;;;;;3.65;2.10;;;19.40;99.70;;;;;;5017495;28;20025;-62
2022/05/16 01:26:00;;;;;;;3.42;2.13;;;19.30;99.90;;;;;;5018794;28;20029;-62
2022/05/16 01:28:26;;;;;;;3.05;1.90;;;19.30;99.90;;;;;;5018179;28;20029;-62
2022/05/16 01:30:54;;;;;;;4.28;2.15;;;19.30;99.90;;;;;;5018728;28;20072;-62
2022/05/16 01:33:22;;;;;;;2.67;1.77;;;19.30;99.90;;;;;;5018104;28;20271;-62
2022/05/16 01:35:49;;;;;;;3.08;1.98;;;19.30;99.90;;;;;;5018570;28;20025;-62
2022/05/16 01:38:21;;;;;;;4.78;2.42;;;19.30;99.90;;;;;;5018077;28;20318;-62
2022/05/16 01:40:48;;;;;;;;;;;19.30;99.90;;;;;;5018462;28;20026;-62
2022/05/16 01:43:15;;;;;;;3.28;1.80;;;19.30;99.90;;;;;;5017765;28;20359;-62
2022/05/16 01:45:43;;;;;;;3.30;1.80;;;19.30;99.90;;;;;;5017975;28;20030;-62
2022/05/16 01:48:10;;;;;;;3.38;1.90;;;19.30;99.90;;;;;;5018166;28;20303;-62
2022/05/16 01:50:36;;;;;;;6.38;1.98;;;19.30;99.90;;;;;;5018431;28;20325;-62
2022/05/16 01:53:02;;;;;;;2.67;1.80;;;19.40;99.90;;;;;;5017659;28;20095;-62
2022/05/16 01:55:28;;;;;;;3.80;1.73;;;19.40;99.90;;;;;;5017271;28;20041;-63
2022/05/16 01:57:54;;;;;;;2.67;1.70;;;19.30;99.90;;;;;;5016873;28;20038;-63
2022/05/16 02:00:20;;;;;;;2.58;1.88;;;19.40;99.90;;;;;;5017667;28;20034;-63
2022/05/16 02:02:47;;;;;;;3.15;1.70;;;19.30;99.90;;;;;;5017602;28;20095;-62
2022/05/16 02:05:16;;;;;;;4.50;1.80;;;19.30;99.90;;;;;;5017541;28;20339;-62
2022/05/16 02:07:42;;;;;;;4.20;1.85;;;19.50;99.90;;;;;;5016759;28;20038;-63
2022/05/16 02:10:10;;;;;;;2.97;1.92;;;19.40;99.90;;;;;;5016825;28;20092;-63
2022/05/16 02:12:36;;;;;;;2.33;1.77;;;19.30;99.90;;;;;;5017384;28;20029;-63
2022/05/16 02:15:08;;;;;;;3.08;2.00;;;19.20;99.90;;;;;;5017430;28;20394;-62
2022/05/16 02:17:33;;;;;;;4.55;2.15;;;19.10;99.90;;;;;;5016861;28;20297;-63
2022/05/16 02:19:59;;;;;;;3.67;1.70;;;19.00;99.90;;;;;;5017374;28;20030;-62
2022/05/16 02:25:10;;;;;;;5.18;2.38;;;18.80;99.90;;;;;;5017329;28;20045;-62
2022/05/16 02:27:36;;;;;;;4.63;2.05;;;18.80;99.90;;;;;;5016396;28;20026;-63
2022/05/16 02:30:04;;;;;;;3.00;1.77;;;18.90;99.90;;;;;;5017821;28;20117;-63
2022/05/16 02:32:30;;;;;;;6.93;2.33;;;18.90;99.90;;;;;;5017442;28;20342;-62
2022/05/16 02:34:56;;;;;;;6.15;2.08;;;19.00;99.90;;;;;;5017364;28;20091;-63
2022/05/16 02:37:22;;;;;;;3.60;2.08;;;19.00;99.90;;;;;;5016449;28;20091;-63
2022/05/16 02:39:47;;;;;;;7.43;2.10;;;18.90;99.90;;;;;;5017720;28;20282;-63
2022/05/16 02:42:14;;;;;;;3.15;1.92;;;18.90;99.90;;;;;;5017085;28;20030;-63
2022/05/16 02:44:42;;;;;;;5.05;2.30;;;18.80;99.90;;;;;;5016933;28;20129;-63
2022/05/16 02:47:14;;;;;;;2.72;2.00;;;18.60;99.90;;;;;;5017339;28;20113;-64
2022/05/16 02:49:40;;;;;;;4.35;2.20;;;18.60;99.90;;;;;;5017691;28;20049;-63
2022/05/16 02:52:06;;;;;;;3.05;2.20;;;18.70;99.90;;;;;;5016979;28;20034;-63
2022/05/16 02:54:32;;;;;;;3.88;1.90;;;18.80;99.90;;;;;;5016936;28;20386;-62
2022/05/16 02:56:58;;;;;;;2.80;2.20;;;18.70;99.90;;;;;;5017263;28;20130;-63
2022/05/16 02:59:27;;;;;;;4.25;2.40;;;18.70;99.90;;;;;;5016956;28;20121;-63
2022/05/16 03:01:53;;;;;;;3.83;2.20;;;18.70;99.90;;;;;;5017240;28;20030;-62
2022/05/16 03:04:19;;;;;;;6.50;2.40;;;18.60;99.90;;;;;;5016903;28;20042;-63
2022/05/16 03:06:45;;;;;;;3.78;2.03;;;18.70;99.90;;;;;;5018583;28;20091;-62
2022/05/16 03:09:11;;;;;;;3.83;2.47;;;18.70;99.90;;;;;;5020808;28;20038;-63
2022/05/16 03:11:37;;;;;;;5.20;2.08;;;18.70;99.90;;;;;;5020778;28;20271;-62
2022/05/16 03:14:03;;;;;;;3.10;2.08;;;18.80;99.90;;;;;;5020689;28;20038;-62
2022/05/16 03:16:29;;;;;;;4.32;2.42;;;18.80;99.90;;;;;;5021018;28;20283;-63
2022/05/16 03:18:55;;;;;;;2.28;2.00;;;18.70;99.90;;;;;;5020646;28;20034;-62
2022/05/16 03:21:22;;;;;;;3.80;2.20;;;18.70;99.90;;;;;;5020617;28;20045;-63
2022/05/16 03:23:48;;;;;;;5.47;2.33;;;18.70;99.90;;;;;;5020567;28;20099;-62
2022/05/16 03:26:14;;;;;;;4.85;2.40;;;18.80;99.90;;;;;;5020507;28;20045;-62
2022/05/16 03:28:40;;;;;;;4.15;2.22;;;18.80;99.90;;;;;;5020644;28;20056;-62
2022/05/16 03:31:07;;;;;;;5.22;2.50;;;18.70;99.90;;;;;;5020490;28;20040;-62
2022/05/16 03:33:33;;;;;;;4.85;2.42;;;18.60;99.90;;;;;;5019954;28;20042;-62
2022/05/16 03:35:59;;;;;;;4.82;2.63;;;18.70;99.90;;;;;;5020287;28;20335;-62
2022/05/16 03:41:12;;;;;;;3.67;2.40;;;18.50;99.90;;;;;;5020226;28;20038;-62
2022/05/16 03:43:40;;;;;;;4.70;2.72;;;18.50;99.90;;;;;;5019424;28;20074;-62
2022/05/16 03:46:06;;;;;;;6.10;2.58;;;18.60;99.90;;;;;;5020022;28;20283;-63
2022/05/16 03:48:33;;;;;;;4.85;2.70;;;18.80;99.90;;;;;;5020018;28;20036;-63
2022/05/16 03:51:01;;;;;;;5.18;2.47;;;18.90;99.90;;;;;;5019905;28;20068;-63
2022/05/16 03:53:27;;;;;;;5.18;2.55;;;19.00;99.90;;;;;;5019946;28;20108;-62
2022/05/16 03:55:53;;;;;;;4.82;2.72;;;19.10;99.90;;;;;;5019766;28;20030;-62
2022/05/16 03:58:19;;;;;;;4.03;2.30;;;19.20;99.90;;;;;;5020178;28;20022;-63
2022/05/16 04:00:45;;;;;;;5.65;2.80;;;19.30;99.90;;;;;;5019798;28;20022;-62
2022/05/16 04:03:11;;;;;;;5.43;2.17;;;19.30;99.90;;;;;;5019479;28;20445;-63
2022/05/16 04:05:38;;;;;;;2.38;2.17;;;19.40;99.90;;;;;;5019715;28;20029;-63
2022/05/16 04:08:04;;;;;;;3.95;3.03;;;19.40;99.90;;;;;;5019662;28;20014;-63
2022/05/16 04:10:30;;;;;;;7.93;2.72;;;19.40;99.90;;;;;;5019716;28;20034;-62
2022/05/16 04:12:57;;;;;;;4.28;2.58;;;19.50;99.90;;;;;;5019624;28;20048;-65
2022/05/16 04:15:23;;;;;;;3.92;2.63;;;19.50;99.90;;;;;;5019826;28;20116;-63
2022/05/16 04:17:50;;;;;;;4.88;2.75;;;19.50;99.90;;;;;;5018607;28;20022;-62
2022/05/16 04:20:17;;;;;;;6.20;2.45;;;19.40;99.90;;;;;;5019547;28;20022;-62
2022/05/16 04:22:43;;;;;;;5.28;2.50;;;19.40;99.90;;;;;;5019506;28;20413;-62
2022/05/16 04:25:12;;;;;;;6.35;2.63;;;19.70;99.90;;;;;;5019530;28;20188;-62
2022/05/16 04:27:38;;;;;;;5.10;2.88;;;19.70;99.90;;;;;;5018656;28;20034;-62
2022/05/16 04:30:05;;;;;;;5.43;2.63;;;19.80;99.90;;;;;;5019465;28;20042;-62
2022/05/16 04:32:31;;;;;;;5.80;2.83;;;19.60;99.90;;;;;;5019621;28;20041;-62
2022/05/16 04:34:57;;;;;;;3.72;2.50;;;19.20;99.90;;;;;;5019221;28;20041;-63
2022/05/16 04:37:23;;;;;;;3.90;2.42;;;19.10;99.90;;;;;;5019270;28;20045;-62
2022/05/16 04:39:49;;;;;;;7.05;2.55;;;19.00;99.90;;;;;;5019312;28;20390;-62
2022/05/16 04:44:59;;;;;;;3.45;2.25;;;18.80;99.90;;;;;;5019135;28;20345;-61
2022/05/16 04:47:26;;;;;;;4.90;2.72;;;18.90;99.90;;;;;;5019225;28;20025;-62
2022/05/16 04:49:53;;;;;;;6.40;2.75;;;18.90;99.90;;;;;;5019227;28;20100;-62
2022/05/16 04:52:19;;;;;;;6.40;2.67;;;18.90;99.90;;;;;;5018952;28;20306;-62
2022/05/16 04:54:48;;;;;;;6.78;2.58;;;18.80;99.90;;;;;;5017984;28;20417;-62
2022/05/16 04:57:14;;;;;;;6.85;3.20;;;18.80;99.90;;;;;;5018679;28;20033;-61
2022/05/16 04:59:40;;;;;;;5.25;2.78;;;18.60;99.90;;;;;;5018567;28;20088;-61
2022/05/16 05:02:06;;;;;;;5.30;2.75;;;18.50;99.90;;;;;;5018649;28;20354;-61
2022/05/16 05:04:31;;;;;;;8.43;3.25;;;18.50;99.90;;;;;;5018842;28;20030;-62
2022/05/16 05:06:57;;;;;;;5.05;2.90;;;18.50;99.90;;;;;;5018378;28;20092;-61
2022/05/16 05:09:23;;;;;;;5.72;2.80;;;18.50;99.90;;;;;;5018653;28;20397;-62
2022/05/16 05:14:34;;;;;;;9.68;3.00;;;18.70;99.90;;;;;;5018689;28;20125;-63
2022/05/16 05:17:06;;;;;;;7.28;2.80;;;18.90;99.90;;;;;;5018441;28;20267;-63
2022/05/16 05:19:33;;;;;;;6.03;2.90;;;19.00;99.90;;;;;;5017583;28;20125;-63
2022/05/16 05:21:58;;;;;;;6.70;2.67;;;19.00;99.90;;;;;;5018373;28;20112;-63
2022/05/16 05:24:24;;;;;;;6.20;2.40;;;19.00;99.90;;;;;;5018605;28;20072;-62
2022/05/16 05:26:50;;;;;;;6.00;2.75;;;19.10;99.90;;;;;;5018281;28;20030;-62
2022/05/16 05:29:16;;;;;;;6.90;2.67;;;19.20;99.90;;;;;;5017487;28;20038;-63
2022/05/16 05:31:43;;;;;;;9.20;2.65;;;19.20;99.90;;;;;;5018108;28;20030;-63
2022/05/16 05:34:11;;;;;;;5.90;2.55;;;19.20;99.90;;;;;;5018067;28;20049;-62
2022/05/16 05:36:38;;;;;;;4.22;2.20;;;19.10;99.90;;;;;;5018135;28;20022;-63
2022/05/16 05:39:04;;;;;;;4.70;2.20;;;19.10;99.90;;;;;;5018062;28;20124;-63
2022/05/16 05:41:31;;;;;;;7.22;2.50;;;19.10;99.90;;;;;;5018038;28;20096;-63
2022/05/16 05:43:57;;;;;;;6.35;2.58;;;19.10;99.90;;;;;;5017826;28;20112;-65
2022/05/16 05:46:23;;;;;;;5.97;2.75;;;19.20;99.90;;;;;;5017176;28;20026;-67
2022/05/16 05:48:49;;;;;;;6.22;2.80;;;19.30;99.90;;;;;;5017887;28;20036;-64
2022/05/16 05:51:15;;;;;;;8.07;2.45;;;19.30;99.90;;;;;;5017857;28;20105;-64
2022/05/16 05:53:43;;;;;;;10.95;2.40;;;19.40;99.90;;;;;;5017722;28;20091;-65
2022/05/16 05:56:10;;;;;;;7.93;2.60;;;19.50;99.90;;;;;;5017664;28;20409;-65
2022/05/16 05:58:37;;;;;;;6.65;2.40;;;19.70;99.90;;;;;;5017571;28;20352;-64
2022/05/16 06:01:04;;;;;;;10.02;2.40;;;19.90;99.90;;;;;;5017605;28;20033;-62
2022/05/16 06:03:30;;;;;;;8.85;2.60;;;20.00;99.90;;;;;;5016950;28;20049;-63
2022/05/16 06:05:57;;;;;;;9.13;2.40;;;20.10;99.90;;;;;;5017418;28;20029;-63
2022/05/16 06:08:23;;;;;;;8.70;2.70;;;20.10;99.90;;;;;;5018055;28;20048;-63
2022/05/16 06:10:49;;;;;;;8.23;2.13;;;20.20;99.90;;;;;;5017451;28;20108;-62
2022/05/16 06:13:17;;;;;;;6.28;2.60;;;20.10;99.90;;;;;;5017059;28;20117;-63
2022/05/16 06:15:43;;;;;;;9.82;2.40;;;20.00;99.90;;;;;;5017264;28;20038;-63
2022/05/16 06:18:09;;;;;;;10.23;2.67;;;19.90;99.90;;;;;;5016630;28;20026;-63
2022/05/16 06:20:34;;;;;;;6.45;2.30;;;19.90;99.90;;;;;;5016589;28;20037;-60
2022/05/16 06:23:00;;;;;;;6.03;2.22;;;19.90;99.90;;;;;;5017337;28;20061;-62
2022/05/16 06:25:33;;;;;;;9.32;2.20;;;20.00;99.90;;;;;;5016526;28;20038;-63
2022/05/16 06:28:07;;;;;;;10.77;2.50;;;19.90;99.90;;;;;;5016607;28;20053;-63
2022/05/16 06:30:35;;;;;;;9.73;2.45;;;20.00;99.90;;;;;;5017204;28;20038;-64
2022/05/16 06:33:01;;;;;;;7.05;2.08;;;20.10;99.90;;;;;;5016560;28;20022;-63
2022/05/16 06:35:27;;;;;;;10.52;2.42;;;20.20;99.90;;;;;;5017414;28;20060;-64
2022/05/16 06:37:53;;;;;;;12.02;2.70;;;20.40;99.90;;;;;;5017256;28;20060;-64
2022/05/16 06:40:20;;;;;;;6.15;2.40;;;20.40;99.90;;;;;;5016330;28;20408;-64
2022/05/16 06:42:46;;;;;;;8.48;2.15;;;20.40;99.90;;;;;;5016960;28;20424;-63
2022/05/16 06:45:14;;;;;;;10.13;2.40;;;20.50;99.90;;;;;;5016542;28;20310;-63
2022/05/16 06:47:40;;;;;;;10.55;2.30;;;20.60;99.90;;;;;;5016266;28;20049;-63
2022/05/16 06:50:06;;;;;;;8.15;2.30;;;20.70;99.90;;;;;;5017228;28;20297;-62
2022/05/16 06:52:32;;;;;;;6.35;2.50;;;20.80;99.90;;;;;;5017079;28;20060;-63
2022/05/16 06:55:00;;;;;;;5.53;1.95;;;20.90;99.90;;;;;;5016969;28;20117;-64
2022/05/16 06:57:27;;;;;;;6.43;1.85;;;21.10;99.90;;;;;;5016909;28;20041;-63
2022/05/16 06:59:53;;;;;;;5.13;2.20;;;21.30;99.90;;;;;;5016869;28;20088;-62
2022/05/16 07:02:19;;;;;;;7.57;2.42;;;21.40;99.90;;;;;;5016957;28;20026;-62
2022/05/16 07:04:44;;;;;;;5.75;1.77;;;21.60;99.90;;;;;;5016229;28;20046;-62
2022/05/16 07:07:11;;;;;;;9.40;1.70;;;21.70;99.90;;;;;;5016806;28;20041;-64
2022/05/16 07:09:39;;;;;;;5.40;1.65;;;21.90;99.90;;;;;;5017231;28;20101;-63
2022/05/16 07:12:06;;;;;;;4.95;1.63;;;22.00;99.90;;;;;;5017106;28;20121;-63
2022/05/16 07:14:33;;;;;;;5.07;1.70;;;22.20;99.90;;;;;;5016097;28;20038;-63
2022/05/16 07:16:59;;;;;;;6.47;1.80;;;22.20;99.90;;;;;;5016856;28;20034;-62
2022/05/16 07:19:28;;;;;;;3.78;1.60;;;22.20;99.90;;;;;;5016986;28;20046;-69
2022/05/16 07:21:55;;;;;;;4.70;1.75;;;22.20;99.90;;;;;;5017041;28;20042;-64
2022/05/16 07:24:21;;;;;;;3.35;1.60;;;22.60;99.90;;;;;;5016662;28;20110;-60
2022/05/16 07:29:31;;;;;;;2.13;1.33;;;23.10;99.90;;;;;;5016870;28;20429;-62
2022/05/16 07:31:57;;;;;;;3.85;1.58;;;23.40;99.90;;;;;;5016539;28;20104;-63
2022/05/16 07:34:23;;;;;;;3.08;1.40;;;23.20;99.90;;;;;;5016605;28;20326;-62
2022/05/16 07:36:49;;;;;;;4.55;1.55;;;22.90;99.90;;;;;;5016151;28;20041;-63
2022/05/16 07:39:15;;;;;;;2.55;1.35;;;22.60;99.90;;;;;;5016797;28;20037;-63
2022/05/16 07:41:40;;;;;;;4.82;1.55;;;22.30;99.90;;;;;;5016577;28;20030;-63
2022/05/16 07:44:06;;;;;;;5.65;1.60;;;22.30;99.90;;;;;;5016405;28;20401;-64
2022/05/16 07:46:32;;;;;;;4.55;1.58;;;22.50;99.90;;;;;;5015888;28;20034;-63
2022/05/16 07:48:57;;;;;;;3.20;1.35;;;22.50;99.90;;;;;;5016442;28;20036;-63
2022/05/16 07:51:23;;;;;;;4.72;1.63;;;22.80;99.90;;;;;;5015920;28;20129;-64
2022/05/16 07:53:49;;;;;;;3.33;1.90;;;23.20;99.90;;;;;;5019534;28;20069;-64
2022/05/16 07:56:15;;;;;;;4.10;1.40;;;23.40;99.90;;;;;;5020378;28;20041;-63
2022/05/16 07:58:40;;;;;;;4.55;2.30;;;23.20;99.90;;;;;;5019990;28;20030;-64
2022/05/16 08:01:06;;;;;;;4.95;1.85;;;23.00;99.90;;;;;;5019251;28;20049;-62
2022/05/16 08:03:32;;;;;;;4.65;1.88;;;23.30;99.90;;;;;;5019031;28;20136;-61
2022/05/16 08:05:58;;;;;;;7.07;2.30;;;23.50;99.90;;;;;;5019889;28;20052;-62
2022/05/16 08:11:10;;;;;;;4.53;1.90;;;23.30;99.90;;;;;;5019819;28;20038;-61
2022/05/16 08:13:37;;;;;;;11.80;1.70;;;22.80;99.90;;;;;;5019728;28;20037;-61
2022/05/16 08:16:03;;;;;;;8.77;1.95;;;22.90;99.90;;;;;;5019938;28;20306;-63
2022/05/16 08:18:29;;;;;;;5.82;2.00;;;23.20;99.90;;;;;;5019850;28;20271;-62
2022/05/16 08:20:55;;;;;;;6.88;1.77;;;23.50;99.90;;;;;;5019629;28;20049;-64
2022/05/16 08:23:25;;;;;;;4.20;1.70;;;23.60;99.90;;;;;;5019383;28;20038;-63
2022/05/16 08:25:53;;;;;;;4.97;1.90;;;23.90;99.90;;;;;;5019514;28;20026;-61
2022/05/16 08:28:19;;;;;;;4.15;2.08;;;23.80;99.90;;;;;;5019480;28;20041;-65
2022/05/16 08:30:46;;;;;;;6.20;2.05;;;23.80;99.90;;;;;;5018794;28;20041;-63
2022/05/16 08:33:12;;;;;;;7.07;2.28;;;23.80;99.90;;;;;;5018830;28;20034;-64
2022/05/16 08:35:38;;;;;;;8.00;2.40;;;23.80;99.90;;;;;;5019195;28;20185;-64
2022/05/16 08:40:54;;;;;;;8.43;2.30;;;23.20;99.90;;;;;;5019248;28;20397;-64
2022/05/16 08:43:39;;;;;;;7.23;2.20;;;23.40;99.90;;;;;;5019019;28;20046;-63
2022/05/16 08:46:15;;;;;;;8.52;2.00;;;23.40;99.90;;;;;;5019022;28;20272;-63
2022/05/16 08:48:47;;;;;;;11.18;2.90;;;23.50;99.90;;;;;;5019619;28;20042;-64
2022/05/16 08:51:25;;;;;;;7.50;2.60;;;23.30;99.90;;;;;;5018946;28;20033;-65
2022/05/16 08:54:09;;;;;;;8.50;2.55;;;23.00;99.90;;;;;;5019517;28;20104;-64
2022/05/16 08:56:38;;;;;;;5.57;2.38;;;22.70;99.90;;;;;;5018847;28;20033;-64
2022/05/16 08:59:16;;;;;;;5.95;2.50;;;22.80;99.90;;;;;;5018766;28;20179;-64
2022/05/16 09:01:50;;;;;;;4.25;2.38;;;22.80;99.90;;;;;;5018685;28;20079;-64
2022/05/16 09:04:24;;;;;;;8.45;2.60;;;22.90;99.90;;;;;;5016969;28;20186;-62
2022/05/16 09:07:14;;;;;;;5.97;2.17;;;23.00;99.90;;;;;;5018647;28;20034;-65
2022/05/16 09:10:07;;;;;;;5.80;2.17;;;23.30;99.90;;;;;;5018641;28;20026;-64
2022/05/16 09:12:37;;;;;;;5.03;2.10;;;24.20;99.90;;;;;;5018670;28;20088;-66
2022/05/16 09:15:10;;;;;;;5.15;2.00;;;25.00;99.90;;;;;;5018439;28;20147;-64
2022/05/16 09:18:15;;;;;;;5.03;2.17;;;25.00;99.90;;;;;;5018652;28;20026;-61
2022/05/16 09:20:54;;;;;;;9.55;2.08;;;24.90;99.90;;;;;;5018018;28;20335;-65
2022/05/16 09:23:38;;;;;;;8.38;2.67;;;24.80;99.90;;;;;;5018501;28;20383;-63
2022/05/16 09:26:31;;;;;;;5.10;2.40;;;24.80;99.90;;;;;;5018406;28;20033;-60
2022/05/16 09:29:28;;;;;;;3.92;2.00;;;24.90;99.90;;;;;;5018246;28;20104;-63
2022/05/16 09:32:05;;;;;;;8.35;2.50;;;25.00;99.90;;;;;;5018544;28;20033;-62
2022/05/16 09:34:33;;;;;;;5.38;2.90;;;24.00;99.90;;;;;;5018114;28;20079;-61
2022/05/16 09:36:58;;;;;;;4.82;3.30;;;24.00;99.90;;;;;;5018168;28;20104;-61
2022/05/16 09:39:31;;;;;;;5.43;2.78;;;23.80;99.90;;;;;;5018011;28;20210;-63
2022/05/16 09:42:34;;;;;;;5.85;3.38;;;24.00;99.90;;;;;;5018050;28;20041;-65
2022/05/16 09:45:12;;;;;;;5.10;3.30;;;23.80;99.90;;;;;;5009448;28;20060;-66
2022/05/16 09:47:40;;;;;;;5.50;3.20;;;24.10;99.90;;;;;;5017931;28;20053;-63
2022/05/16 09:50:14;;;;;;;8.45;3.05;;;24.40;99.90;;;;;;5017837;28;20052;-67
2022/05/16 09:52:46;;;;;;;9.30;3.45;;;24.50;99.90;;;;;;5017848;28;20025;-63
2022/05/16 09:55:24;;;;;;;6.68;3.63;;;24.30;99.90;;;;;;5017977;28;20033;-63
2022/05/16 09:58:13;;;;;;;6.28;3.85;;;23.80;99.90;;;;;;5017766;28;20041;-64
2022/05/16 10:00:45;;;;;;;6.63;3.28;;;23.80;99.90;;;;;;5017321;28;20038;-62
2022/05/16 10:03:14;;;;;;;7.68;3.72;;;23.40;99.90;;;;;;5017833;28;20030;-62
2022/05/16 10:05:48;;;;;;;8.60;4.53;;;23.60;99.90;;;;;;5017693;28;20049;-61
2022/05/16 10:08:33;;;;;;;7.03;3.92;;;23.70;99.90;;;;;;5017703;28;20448;-63
2022/05/16 10:11:02;;;;;;;11.93;3.95;;;23.70;99.90;;;;;;5017629;28;20275;-63
2022/05/16 10:13:29;;;;;;;9.10;4.35;;;23.50;99.90;;;;;;5017823;28;20022;-65
2022/05/16 10:15:57;;;;;;;10.95;4.82;;;23.40;99.90;;;;;;5016450;28;20423;-65
2022/05/16 10:18:26;;;;;;;6.97;4.70;;;23.50;99.90;;;;;;5017845;28;20030;-65
2022/05/16 10:21:06;;;;;;;7.15;4.90;;;23.20;99.90;;;;;;5017629;28;20041;-68
2022/05/16 10:23:36;;;;;;;8.98;4.47;;;23.10;99.90;;;;;;5000363;28;20390;-64
2022/05/16 10:26:07;;;;;;;6.75;4.70;;;23.00;99.90;;;;;;5017463;28;20425;-65
2022/05/16 10:28:43;;;;;;;9.73;4.90;;;22.70;99.90;;;;;;5016995;28;20128;-62
2022/05/16 10:34:20;;;;;;;12.60;5.70;;;22.80;99.90;;;;;;5017732;28;20034;-66
2022/05/16 10:36:52;;;;;;;7.78;5.80;;;22.50;99.90;;;;;;5017588;28;20326;-62
2022/05/16 10:39:28;;;;;;;11.98;5.90;;;22.40;99.90;;;;;;5017180;28;20026;-65
2022/05/16 10:42:06;;;;;;;10.77;6.25;;;22.50;99.90;;;;;;5017369;28;20100;-66
2022/05/16 10:44:35;;;;;;;11.63;6.00;;;22.50;99.90;;;;;;5016946;28;20054;-64
2022/05/16 10:47:38;;;;;;;7.70;5.45;;;22.50;99.90;;;;;;5016976;28;20140;-61
2022/05/16 10:50:41;;;;;;;11.77;5.70;;;22.40;99.90;;;;;;4976406;28;20130;-64
2022/05/16 10:53:20;;;;;;;10.02;5.47;;;22.70;99.90;;;;;;5017256;28;20061;-62
2022/05/16 10:56:15;;;;;;;7.70;5.82;;;22.50;99.90;;;;;;5016955;28;20037;-63
2022/05/16 10:58:57;;;;;;;15.45;6.78;;;22.90;99.90;;;;;;5016943;28;20058;-64
2022/05/16 11:01:48;;;;;;;13.68;6.60;;;22.60;99.90;;;;;;5016732;28;20382;-62
2022/05/16 11:04:47;;;;;;;11.43;6.95;;;22.50;99.90;;;;;;5016889;28;20032;-70
2022/05/16 11:07:41;;;;;;;10.52;6.32;;;22.70;99.90;;;;;;5016824;28;20017;-62
2022/05/16 11:10:10;;;;;;;11.65;6.15;;;23.10;99.90;;;;;;5017344;28;20037;-62
2022/05/16 11:12:49;;;;;;;10.57;6.50;;;23.30;99.90;;;;;;5016121;28;20022;-64
2022/05/16 11:15:27;;;;;;;13.93;7.25;;;23.60;99.90;;;;;;5016899;28;20048;-64
2022/05/16 11:18:13;;;;;;;13.55;6.90;;;23.50;99.90;;;;;;5016894;28;20049;-62
2022/05/16 11:20:48;;;;;;;10.60;7.07;;;23.20;99.90;;;;;;5016950;28;20030;-61
2022/05/16 11:23:14;;;;;;;8.60;6.22;;;23.00;99.90;;;;;;5016199;28;20275;-64
2022/05/16 11:25:48;;;;;;;9.60;6.35;;;22.90;99.90;;;;;;5016717;28;20113;-62
2022/05/16 11:28:20;;;;;;;10.48;5.78;;;23.20;99.90;;;;;;5019106;28;20040;-65
2022/05/16 11:31:03;;;;;;;8.43;6.53;;;23.40;99.90;;;;;;5019692;28;20030;-61
2022/05/16 11:33:51;;;;;;;10.10;5.93;;;23.50;99.90;;;;;;5020411;28;20269;-61
2022/05/16 11:36:33;;;;;;;9.27;5.28;;;24.20;99.90;;;;;;5020465;28;20275;-63
2022/05/16 11:39:14;;;;;;;9.77;5.37;;;24.90;99.90;;;;;;5020475;28;20036;-63
2022/05/16 11:42:07;;;;;;;8.68;4.25;;;25.80;99.90;;;;;;5020249;28;20394;-64
2022/05/16 11:45:03;;;;;;;9.23;4.50;;;25.40;99.90;;;;;;5020207;28;20060;-64
2022/05/16 11:47:43;;;;;;;5.60;3.38;;;25.50;99.90;;;;;;5020149;28;20061;-62
2022/05/16 11:50:30;;;;;;;7.57;3.30;;;25.80;99.90;;;;;;5020514;28;20030;-66
2022/05/16 11:53:12;;;;;;;8.43;3.30;;;25.90;99.90;;;;;;5020088;28;20040;-64
2022/05/16 12:01:36;;;;;;;5.88;2.63;;;26.20;99.90;;;;;;5019991;28;20029;-65
2022/05/16 12:04:23;;;;;;;6.78;2.80;;;25.90;99.90;;;;;;5019919;28;20048;-65
2022/05/16 12:06:57;;;;;;;5.72;2.67;;;26.50;99.90;;;;;;5020065;28;20030;-65
2022/05/16 12:09:44;;;;;;;7.05;2.78;;;27.20;99.90;;;;;;5020054;28;20045;-66
2022/05/16 12:12:22;;;;;;;10.65;2.97;;;26.50;99.90;;;;;;5018845;28;20026;-64
2022/05/16 12:15:07;;;;;;;6.53;2.65;;;25.70;99.90;;;;;;5019090;28;20037;-63
2022/05/16 12:17:34;;;;;;;7.63;2.70;;;25.40;99.90;;;;;;5019737;28;20026;-65
2022/05/16 12:20:09;;;;;;;8.13;2.92;;;24.70;99.90;;;;;;5020044;28;20030;-64
2022/05/16 12:22:35;;;;;;;7.75;2.80;;;24.50;99.90;;;;;;5019545;28;20113;-64
2022/05/16 12:25:29;;;;;;;8.32;2.97;;;25.00;99.90;;;;;;5019417;28;20050;-63
2022/05/16 12:28:13;;;;;;;7.72;3.20;;;25.10;99.90;;;;;;5019375;28;20096;-64
2022/05/16 12:30:57;;;;;;;5.93;2.70;;;25.40;99.90;;;;;;5019322;28;20030;-61
2022/05/16 12:33:26;;;;;;;8.65;2.70;;;25.80;99.90;;;;;;5019363;28;20117;-64
2022/05/16 12:35:53;;;;;;;10.05;2.75;;;26.30;99.90;;;;;;5018011;28;20046;-63
2022/05/16 12:38:22;;;;;;;9.60;2.78;;;26.50;99.90;;;;;;5019405;28;20109;-63
2022/05/16 12:41:12;;;;;;;8.52;2.17;;;26.00;99.90;;;;;;5018999;28;20037;-63
2022/05/16 12:44:02;;;;;;;6.75;2.70;;;26.00;99.90;;;;;;5019062;28;20050;-62
2022/05/16 12:47:06;;;;;;;8.40;2.40;;;25.90;99.90;;;;;;5019261;28;20025;-65
2022/05/16 12:49:43;;;;;;;12.57;2.35;;;25.70;99.90;;;;;;5019575;28;20105;-63
2022/05/16 12:52:21;;;;;;;7.25;2.28;;;25.00;99.90;;;;;;5019103;28;20030;-62
2022/05/16 12:55:04;;;;;;;5.45;2.20;;;25.30;99.90;;;;;;5018117;28;20417;-67
2022/05/16 12:57:33;;;;;;;9.65;2.40;;;25.20;99.90;;;;;;5018499;28;20041;-60
2022/05/16 13:00:39;;;;;;;6.13;2.28;;;25.10;99.90;;;;;;5018763;28;20099;-62
2022/05/16 13:03:27;;;;;;;7.55;2.03;;;25.20;99.90;;;;;;5018310;28;20046;-59
2022/05/16 13:06:01;;;;;;;8.57;2.65;;;25.20;99.90;;;;;;5018658;28;20408;-63
2022/05/16 13:08:50;;;;;;;6.18;1.70;;;24.70;99.90;;;;;;5018610;28;20112;-64
2022/05/16 13:11:46;;;;;;;6.38;1.98;;;24.50;99.90;;;;;;5018573;28;20033;-60
2022/05/16 13:14:33;;;;;;;4.75;1.80;;;24.70;99.90;;;;;;5018424;28;20026;-65
2022/05/16 13:17:12;;;;;;;5.53;1.52;;;24.40;99.90;;;;;;5018478;28;20030;-62
2022/05/16 13:19:44;;;;;;;6.88;1.50;;;24.40;99.90;;;;;;5018428;28;20077;-60
2022/05/16 13:22:22;;;;;;;7.43;1.70;;;24.70;99.90;;;;;;5017627;28;20037;-62
2022/05/16 13:24:53;;;;;;;6.93;1.80;;;25.50;99.90;;;;;;5018946;28;20338;-67
2022/05/16 13:30:09;;;;;;;5.63;1.65;;;26.10;99.90;;;;;;5017490;28;20038;-61
2022/05/16 13:32:36;;;;;;;4.30;1.73;;;26.30;99.90;;;;;;5018274;28;20037;-59
2022/05/16 13:35:08;;;;;;;6.53;1.50;;;25.20;99.90;;;;;;5018054;28;20053;-61
2022/05/16 13:37:52;;;;;;;6.13;1.80;;;25.00;99.90;;;;;;5018203;28;20022;-62
2022/05/16 13:40:38;;;;;;;5.32;1.42;;;25.50;99.90;;;;;;5018047;28;20109;-60